Time;durP1;ratioP1;P1;durP2;ratioP2;P2;SDS_P1;SDS_P2;PMS_P1;PMS_P2;Temp;Humidity;BMP_temperature;BMP_pressure;BME280_temperature;BME280_humidity;BME280_pressure;Samples;Min_cycle;Max_cycle;Signal;HPM_P1;HPM_P2
2022/10/01 00:02:01;;;;;;;13.85;5.47;;;;;;;13.51;81.11;101726.83;1847124;78;21494;-61
2022/10/01 00:04:30;;;;;;;11.68;6.40;;;;;;;13.52;80.89;101725.08;1847071;78;21015;-61
2022/10/01 00:07:03;;;;;;;12.65;6.35;;;;;;;13.51;81.12;101728.16;1846977;77;21059;-61
2022/10/01 00:09:29;;;;;;;10.80;5.65;;;;;;;13.48;81.21;101726.08;1846712;77;21056;-61
2022/10/01 00:11:58;;;;;;;16.23;6.75;;;;;;;13.47;81.08;101729.66;1846958;78;21047;-61
2022/10/01 00:14:28;;;;;;;12.50;6.30;;;;;;;13.42;81.09;101735.09;1847057;78;21489;-62
2022/10/01 00:16:57;;;;;;;13.83;6.30;;;;;;;13.40;80.99;101739.58;1847073;78;21529;-60
2022/10/01 00:19:26;;;;;;;12.07;7.20;;;;;;;13.36;80.99;101738.43;1846919;78;21098;-61
2022/10/01 00:21:55;;;;;;;12.88;6.92;;;;;;;13.31;81.28;101737.25;1847159;78;21466;-60
2022/10/01 00:24:23;;;;;;;10.60;6.12;;;;;;;13.24;81.85;101741.87;1846957;77;21075;-60
2022/10/01 00:26:52;;;;;;;12.53;6.75;;;;;;;13.22;82.15;101741.50;1847241;78;21015;-60
2022/10/01 00:29:21;;;;;;;11.68;6.08;;;;;;;13.21;82.15;101739.33;1846989;77;21094;-60
2022/10/01 00:31:50;;;;;;;13.95;5.87;;;;;;;13.20;82.26;101734.94;1846918;78;21051;-61
2022/10/01 00:34:18;;;;;;;13.40;7.10;;;;;;;13.20;82.43;101739.38;1847067;77;21047;-61
2022/10/01 00:36:48;;;;;;;15.45;7.80;;;;;;;13.19;82.24;101737.66;1846944;78;21047;-61
2022/10/01 00:39:16;;;;;;;19.85;11.40;;;;;;;13.21;82.15;101734.50;1846898;78;21490;-61
2022/10/01 00:41:45;;;;;;;20.48;13.32;;;;;;;13.23;81.98;101745.42;1846746;78;21047;-61
2022/10/01 00:44:33;;;;;;;22.37;13.93;;;;;;;13.24;82.10;101748.92;1847067;77;21133;-61
2022/10/01 00:47:32;;;;;;;23.57;16.25;;;;;;;13.23;82.11;101745.42;1846941;78;21068;-61
2022/10/01 00:50:20;;;;;;;27.35;10.40;;;;;;;13.23;82.02;101741.45;1846917;78;21083;-61
2022/10/01 00:52:51;;;;;;;32.35;10.08;;;;;;;13.22;82.20;101748.11;1846952;78;21129;-61
2022/10/01 00:55:29;;;;;;;29.00;8.33;;;;;;;13.18;82.08;101746.50;1846967;78;21486;-60
2022/10/01 00:57:58;;;;;;;24.92;8.28;;;;;;;13.12;82.30;101745.78;1846024;78;21525;-61
2022/10/01 01:00:27;;;;;;;30.17;8.83;;;;;;;13.06;82.54;101753.93;1852352;77;21501;-63
2022/10/01 01:02:56;;;;;;;19.67;8.40;;;;;;;13.03;82.58;101757.98;1785166;80;21057;-61
2022/10/01 01:05:25;;;;;;;14.95;7.55;;;;;;;13.00;82.67;101758.08;1856159;77;21031;-60
2022/10/01 01:07:54;;;;;;;17.02;5.72;;;;;;;12.99;82.87;101747.58;1856154;77;21043;-60
2022/10/01 01:10:32;;;;;;;15.48;6.97;;;;;;;12.97;82.73;101754.23;1856336;77;21031;-60
2022/10/01 01:13:04;;;;;;;13.28;6.42;;;;;;;12.94;82.56;101755.18;1854519;77;21058;-60
2022/10/01 01:15:44;;;;;;;12.28;6.10;;;;;;;12.91;82.94;101759.27;1855459;77;21082;-60
2022/10/01 01:18:30;;;;;;;10.98;6.65;;;;;;;12.88;83.17;101755.86;1856264;77;21125;-60
2022/10/01 01:21:04;;;;;;;13.95;6.28;;;;;;;12.84;83.44;101764.81;1856159;77;21075;-60
2022/10/01 01:23:52;;;;;;;10.05;6.00;;;;;;;12.80;83.66;101764.47;1855824;77;21149;-60
2022/10/01 01:26:47;;;;;;;12.82;5.85;;;;;;;12.75;83.75;101764.17;1854899;77;21070;-61
2022/10/01 01:29:21;;;;;;;14.90;6.15;;;;;;;12.72;83.74;101761.61;1855777;77;21529;-60
2022/10/01 01:31:51;;;;;;;14.13;7.05;;;;;;;12.67;83.90;101760.92;1855984;77;21062;-61
2022/10/01 01:34:22;;;;;;;11.15;5.83;;;;;;;12.64;84.11;101770.72;1856055;77;21453;-61
2022/10/01 01:36:54;;;;;;;16.73;7.58;;;;;;;12.59;84.11;101766.88;1856138;77;21059;-61
2022/10/01 01:39:25;;;;;;;17.20;7.35;;;;;;;12.58;84.26;101766.49;1855849;77;21031;-61
2022/10/01 01:41:58;;;;;;;14.03;7.08;;;;;;;12.60;84.39;101765.98;1856131;77;21113;-60
2022/10/01 01:44:30;;;;;;;13.38;6.92;;;;;;;12.59;84.58;101769.52;1856198;77;21207;-60
2022/10/01 01:47:01;;;;;;;9.18;5.37;;;;;;;12.59;84.60;101772.16;1856096;77;21055;-61
2022/10/01 01:49:30;;;;;;;8.65;5.55;;;;;;;12.58;84.43;101770.45;1856117;77;21478;-61
2022/10/01 01:52:12;;;;;;;11.38;7.05;;;;;;;12.58;84.27;101775.73;1856136;77;21095;-60
2022/10/01 01:54:43;;;;;;;14.18;6.80;;;;;;;12.58;84.57;101779.70;1855598;77;21133;-61
2022/10/01 01:57:12;;;;;;;11.45;6.35;;;;;;;12.54;84.49;101779.36;1856255;77;21031;-60
2022/10/01 01:59:42;;;;;;;13.48;6.62;;;;;;;12.51;84.84;101782.97;1853662;77;21156;-61
2022/10/01 02:02:16;;;;;;;12.53;6.45;;;;;;;12.49;85.00;101783.95;1847030;78;21126;-62
2022/10/01 02:04:56;;;;;;;14.80;6.80;;;;;;;12.48;84.91;101787.48;1846954;78;21067;-62
2022/10/01 02:07:34;;;;;;;13.95;6.35;;;;;;;12.47;84.95;101783.98;1847017;78;21078;-61
2022/10/01 02:10:25;;;;;;;11.30;5.55;;;;;;;12.46;85.04;101788.84;1846921;78;21106;-61
2022/10/01 02:13:13;;;;;;;17.05;6.92;;;;;;;12.45;84.90;101787.56;1846999;78;21031;-61
2022/10/01 02:15:47;;;;;;;13.75;6.85;;;;;;;12.42;85.05;101786.36;1846963;78;21115;-62
2022/10/01 02:18:50;;;;;;;14.93;7.10;;;;;;;12.38;85.25;101794.83;1846916;78;21564;-62
2022/10/01 02:21:25;;;;;;;11.97;6.80;;;;;;;12.36;85.43;101797.52;1846972;78;21099;-62
2022/10/01 02:24:02;;;;;;;14.65;7.70;;;;;;;12.38;85.40;101795.30;1846191;78;21087;-62
2022/10/01 02:26:32;;;;;;;18.65;9.80;;;;;;;12.42;85.35;101799.56;1846425;78;21505;-62
2022/10/01 02:29:04;;;;;;;17.15;8.73;;;;;;;12.42;85.71;101799.10;1846879;78;21474;-62
2022/10/01 02:31:34;;;;;;;12.65;6.12;;;;;;;12.44;85.64;101801.70;1847032;77;21079;-62
2022/10/01 02:34:06;;;;;;;16.82;9.10;;;;;;;12.43;85.68;101809.20;1846861;78;21072;-62
2022/10/01 02:36:40;;;;;;;19.20;8.90;;;;;;;12.43;85.78;101809.20;1846805;78;21540;-62
2022/10/01 02:39:09;;;;;;;27.27;10.13;;;;;;;12.44;85.92;101808.31;1846948;78;21035;-63
2022/10/01 02:41:38;;;;;;;14.05;6.65;;;;;;;12.43;85.90;101814.05;1846855;77;21104;-62
2022/10/01 02:44:12;;;;;;;26.35;7.85;;;;;;;12.44;85.92;101820.19;1846895;78;21119;-62
2022/10/01 02:46:56;;;;;;;16.35;8.18;;;;;;;12.43;85.64;101818.45;1846819;78;21031;-62
2022/10/01 02:49:27;;;;;;;18.80;8.00;;;;;;;12.43;85.39;101821.09;1846959;78;21056;-62
2022/10/01 02:52:15;;;;;;;15.23;7.90;;;;;;;12.38;85.48;101815.10;1846833;78;21451;-61
2022/10/01 02:54:46;;;;;;;18.32;8.38;;;;;;;12.33;85.60;101816.54;1846919;77;21078;-61
2022/10/01 02:57:28;;;;;;;15.13;7.70;;;;;;;12.30;85.85;101821.47;1846588;78;21063;-61
2022/10/01 03:00:03;;;;;;;25.92;8.48;;;;;;;12.27;86.00;101818.91;1846906;77;21131;-61
2022/10/01 03:02:32;;;;;;;27.10;7.42;;;;;;;12.24;86.17;101827.37;1847096;77;21117;-61
2022/10/01 03:05:01;;;;;;;21.80;7.97;;;;;;;12.22;86.19;101834.01;1846967;78;21109;-61
2022/10/01 03:07:34;;;;;;;17.25;7.62;;;;;;;12.23;86.05;101830.91;1846898;78;21129;-62
2022/10/01 03:10:04;;;;;;;23.13;8.30;;;;;;;12.23;85.95;101830.47;1847264;77;21118;-61
2022/10/01 03:12:33;;;;;;;21.45;9.23;;;;;;;12.24;85.95;101829.55;1847004;78;21173;-61
2022/10/01 03:15:03;;;;;;;18.87;9.00;;;;;;;12.22;86.03;101824.77;1846941;78;21097;-61
2022/10/01 03:17:31;;;;;;;18.05;9.45;;;;;;;12.18;86.20;101829.73;1847001;78;21526;-61
2022/10/01 03:20:00;;;;;;;19.25;8.93;;;;;;;12.13;86.30;101824.56;1846859;78;21023;-64
2022/10/01 03:22:29;;;;;;;17.73;7.67;;;;;;;12.13;86.45;101829.84;1846979;78;21161;-61
2022/10/01 03:24:58;;;;;;;17.67;8.93;;;;;;;12.11;86.46;101834.30;1847055;77;21063;-61
2022/10/01 03:27:26;;;;;;;16.55;8.60;;;;;;;12.11;86.39;101833.45;1847103;78;21153;-62
2022/10/01 03:29:55;;;;;;;15.45;8.20;;;;;;;12.10;86.44;101833.05;1847012;78;21063;-62
2022/10/01 03:32:24;;;;;;;16.00;7.70;;;;;;;12.10;86.53;101834.38;1846988;78;21043;-62
2022/10/01 03:34:52;;;;;;;18.92;8.95;;;;;;;12.12;86.47;101836.52;1846867;78;21032;-62
2022/10/01 03:37:21;;;;;;;15.38;8.55;;;;;;;12.11;86.59;101839.59;1846968;78;21125;-61
2022/10/01 03:39:49;;;;;;;15.90;7.20;;;;;;;12.11;86.58;101849.30;1847000;77;21059;-61
2022/10/01 03:42:18;;;;;;;14.55;6.90;;;;;;;12.12;86.35;101845.30;1846925;78;21107;-61
2022/10/01 03:44:47;;;;;;;15.18;7.10;;;;;;;12.13;86.19;101839.09;1846989;78;21051;-61
2022/10/01 03:47:16;;;;;;;14.60;7.33;;;;;;;12.14;85.98;101844.80;1846860;78;21043;-62
2022/10/01 03:49:44;;;;;;;17.75;7.00;;;;;;;12.17;85.93;101839.87;1846959;78;21056;-61
2022/10/01 03:52:13;;;;;;;10.98;7.00;;;;;;;12.18;86.23;101839.44;1846919;78;21027;-60
2022/10/01 03:57:31;;;;;;;15.13;6.12;;;;;;;12.25;85.96;101841.85;1862110;77;21021;-61
2022/10/01 03:59:59;;;;;;;13.40;6.72;;;;;;;12.30;85.82;101842.59;1862302;77;21100;-61
2022/10/01 04:02:29;;;;;;;10.78;5.33;;;;;;;12.37;85.58;101835.34;1862204;77;21107;-61
2022/10/01 04:04:57;;;;;;;13.85;7.75;;;;;;;12.42;85.46;101841.83;1862425;77;21045;-61
2022/10/01 04:07:26;;;;;;;20.85;7.05;;;;;;;12.45;85.54;101839.08;1862231;77;21053;-61
2022/10/01 04:09:55;;;;;;;15.10;8.23;;;;;;;12.50;85.67;101840.67;1862388;77;21158;-62
2022/10/01 04:12:24;;;;;;;14.73;7.90;;;;;;;12.56;85.81;101843.61;1862168;77;21116;-61
2022/10/01 04:14:53;;;;;;;17.37;7.37;;;;;;;12.63;85.93;101845.59;1862226;77;21433;-61
2022/10/01 04:17:22;;;;;;;14.13;6.42;;;;;;;12.69;86.01;101849.40;1862224;77;21018;-61
2022/10/01 04:19:50;;;;;;;16.35;7.87;;;;;;;12.77;85.92;101842.55;1862282;77;21024;-61
2022/10/01 04:22:19;;;;;;;13.80;7.97;;;;;;;12.83;86.07;101847.17;1862183;77;21065;-61
2022/10/01 04:24:48;;;;;;;14.50;7.62;;;;;;;12.91;86.13;101846.94;1862145;77;21041;-62
2022/10/01 04:27:16;;;;;;;17.85;7.85;;;;;;;13.01;86.16;101851.03;1862244;77;21018;-62
2022/10/01 04:29:45;;;;;;;13.05;6.87;;;;;;;13.10;86.20;101848.09;1862193;77;21072;-61
2022/10/01 04:32:15;;;;;;;14.58;6.75;;;;;;;13.23;86.04;101855.18;1862254;77;21085;-61
2022/10/01 04:34:53;;;;;;;15.20;6.35;;;;;;;13.37;85.82;101857.42;1862326;77;21171;-60
2022/10/01 04:37:22;;;;;;;11.93;6.00;;;;;;;13.48;85.58;101852.64;1862161;77;21053;-61
2022/10/01 04:39:51;;;;;;;14.78;7.25;;;;;;;13.62;85.34;101863.20;1862267;77;21488;-60
2022/10/01 04:42:21;;;;;;;13.70;6.58;;;;;;;13.72;85.11;101859.31;1862189;77;21049;-61
2022/10/01 04:44:49;;;;;;;14.83;7.65;;;;;;;13.81;84.94;101859.00;1862360;77;21464;-61
2022/10/01 04:47:19;;;;;;;16.42;7.05;;;;;;;13.90;84.75;101857.35;1862214;77;21046;-61
2022/10/01 04:49:48;;;;;;;12.35;5.95;;;;;;;14.03;84.57;101861.75;1862312;77;21045;-61
2022/10/01 04:52:16;;;;;;;12.10;6.55;;;;;;;14.14;84.32;101866.67;1862266;77;21081;-61
2022/10/01 04:54:45;;;;;;;13.03;6.80;;;;;;;14.26;84.10;101875.51;1862246;77;21186;-61
2022/10/01 04:57:14;;;;;;;16.50;6.47;;;;;;;14.37;83.91;101879.09;1883062;76;21077;-61
2022/10/01 04:59:42;;;;;;;12.47;6.67;;;;;;;14.47;83.74;101884.91;1894357;76;21026;-61
2022/10/01 05:02:12;;;;;;;11.68;6.10;;;;;;;14.57;83.55;101878.39;1894236;76;21061;-63
2022/10/01 05:04:40;;;;;;;14.68;6.58;;;;;;;14.69;83.27;101886.33;1894399;76;21123;-61
2022/10/01 05:07:09;;;;;;;14.15;5.65;;;;;;;14.83;82.98;101887.14;1894357;76;21053;-61
2022/10/01 05:09:38;;;;;;;12.47;6.15;;;;;;;15.01;82.72;101895.70;1894334;76;21021;-61
2022/10/01 05:12:06;;;;;;;12.43;6.28;;;;;;;15.22;82.40;101886.02;1894466;76;21135;-61
2022/10/01 05:14:36;;;;;;;15.30;6.12;;;;;;;15.51;82.04;101893.70;1894228;76;21135;-61
2022/10/01 05:17:06;;;;;;;16.50;6.83;;;;;;;15.98;81.49;101890.87;1894263;76;21170;-61
2022/10/01 05:19:35;;;;;;;11.08;5.55;;;;;;;16.58;81.40;101890.39;1894330;76;21104;-61
2022/10/01 05:22:03;;;;;;;11.68;5.62;;;;;;;17.05;81.96;101889.59;1894314;75;21111;-61
2022/10/01 05:24:33;;;;;;;10.20;5.78;;;;;;;17.31;81.05;101890.51;1894352;76;21147;-61
2022/10/01 05:27:01;;;;;;;9.60;5.95;;;;;;;17.68;79.13;101893.14;1894346;76;21061;-61
2022/10/01 05:29:31;;;;;;;9.28;5.75;;;;;;;18.05;78.15;101892.14;1894404;75;21441;-62
2022/10/01 05:32:00;;;;;;;9.95;5.03;;;;;;;18.38;78.03;101886.45;1894443;75;21046;-61
2022/10/01 05:34:28;;;;;;;13.13;4.62;;;;;;;18.67;78.01;101889.72;1894456;76;21115;-61
2022/10/01 05:36:58;;;;;;;10.40;5.55;;;;;;;18.94;76.86;101890.97;1894334;76;21162;-61
2022/10/01 05:39:26;;;;;;;9.68;5.53;;;;;;;19.35;75.51;101894.42;1894340;76;21065;-61
2022/10/01 05:41:55;;;;;;;9.80;5.65;;;;;;;19.90;74.19;101892.56;1894205;76;21166;-62
2022/10/01 05:44:25;;;;;;;11.63;4.40;;;;;;;20.52;73.19;101887.44;1894393;76;21041;-61
2022/10/01 05:46:54;;;;;;;11.15;4.85;;;;;;;21.20;72.72;101887.52;1894393;76;21022;-61
2022/10/01 05:49:24;;;;;;;7.78;4.78;;;;;;;21.93;71.82;101885.36;1894331;76;21050;-61
2022/10/01 05:51:53;;;;;;;15.25;5.22;;;;;;;22.49;69.93;101884.59;1894406;76;21428;-61
2022/10/01 05:54:22;;;;;;;9.13;4.47;;;;;;;22.95;66.60;101881.74;1894200;76;21045;-62
2022/10/01 05:56:52;;;;;;;7.00;3.47;;;;;;;23.30;65.52;101877.80;1893076;76;21578;-62
2022/10/01 05:59:21;;;;;;;7.78;3.60;;;;;;;23.80;64.71;101874.95;1887816;76;21046;-61
2022/10/01 06:01:49;;;;;;;8.15;3.75;;;;;;;24.21;63.67;101867.31;1887810;75;21123;-61
2022/10/01 06:04:18;;;;;;;8.33;2.95;;;;;;;24.69;63.25;101863.53;1887830;76;21041;-61
2022/10/01 06:06:47;;;;;;;6.95;2.67;;;;;;;25.21;61.89;101864.61;1887721;76;21059;-62
2022/10/01 06:09:16;;;;;;;11.33;4.45;;;;;;;25.72;60.77;101871.16;1887980;76;21096;-62
2022/10/01 06:11:45;;;;;;;9.43;5.50;;;;;;;26.11;59.16;101871.41;1887817;76;21042;-61
2022/10/01 06:14:14;;;;;;;8.15;5.47;;;;;;;26.49;58.14;101870.73;1887766;76;21119;-61
2022/10/01 06:16:43;;;;;;;6.30;3.95;;;;;;;27.02;57.12;101867.39;1887814;76;21050;-61
2022/10/01 06:19:12;;;;;;;7.25;3.92;;;;;;;27.42;55.03;101867.30;1887754;75;21034;-61
2022/10/01 06:21:41;;;;;;;5.62;3.15;;;;;;;27.85;54.71;101867.81;1887779;76;21030;-61
2022/10/01 06:24:09;;;;;;;5.35;3.17;;;;;;;28.37;53.58;101869.61;1887816;76;21014;-61
2022/10/01 06:26:38;;;;;;;6.97;3.10;;;;;;;28.79;52.36;101873.20;1887794;76;21108;-61
2022/10/01 06:29:07;;;;;;;9.43;3.15;;;;;;;29.23;51.37;101862.50;1887831;76;21436;-61
2022/10/01 06:31:36;;;;;;;7.33;2.77;;;;;;;29.59;50.22;101867.87;1887916;76;21105;-61
2022/10/01 06:34:06;;;;;;;4.22;2.50;;;;;;;30.15;49.32;101873.02;1888028;75;21503;-61
2022/10/01 06:36:35;;;;;;;9.65;1.87;;;;;;;30.53;48.05;101864.91;1887883;76;21042;-61
2022/10/01 06:39:04;;;;;;;5.12;2.30;;;;;;;30.96;47.09;101860.28;1887909;76;21033;-62
2022/10/01 06:41:33;;;;;;;4.03;1.98;;;;;;;31.42;46.07;101861.70;1887893;76;21054;-62
2022/10/01 06:44:02;;;;;;;5.10;2.00;;;;;;;31.64;44.67;101857.47;1887890;76;21139;-61
2022/10/01 06:46:31;;;;;;;3.08;1.52;;;;;;;31.80;43.65;101860.16;1887721;76;21131;-61
2022/10/01 06:49:00;;;;;;;5.60;2.45;;;;;;;31.77;41.47;101853.70;1887909;76;21488;-62
2022/10/01 06:54:17;;;;;;;8.98;2.27;;;;;;;31.66;39.63;101844.53;1887861;76;21058;-63
2022/10/01 06:56:45;;;;;;;5.97;2.15;;;;;;;31.81;38.45;101846.87;1888021;75;21050;-63
2022/10/01 06:59:13;;;;;;;5.97;2.10;;;;;;;32.09;38.41;101841.04;1887092;76;21152;-63
2022/10/01 07:01:42;;;;;;;6.17;1.80;;;;;;;32.27;37.03;101837.56;1887786;76;21058;-63
2022/10/01 07:04:11;;;;;;;1.98;1.45;;;;;;;32.32;36.14;101835.16;1887831;76;21046;-63
2022/10/01 07:06:40;;;;;;;6.70;2.25;;;;;;;32.36;35.70;101838.39;1887869;76;21030;-63
2022/10/01 07:09:09;;;;;;;1.87;1.60;;;;;;;32.43;35.78;101840.73;1887898;76;21111;-63
2022/10/01 07:11:43;;;;;;;6.72;1.90;;;;;;;32.49;34.91;101835.09;1887843;76;21037;-63
2022/10/01 07:14:09;;;;;;;5.08;2.05;;;;;;;32.43;33.77;101840.73;1887168;76;21527;-63
2022/10/01 07:16:40;;;;;;;5.45;1.60;;;;;;;32.41;33.25;101840.59;1887877;75;21495;-63
2022/10/01 07:19:10;;;;;;;10.30;2.95;;;;;;;32.66;33.71;101835.88;1888203;75;21053;-62
2022/10/01 07:21:39;;;;;;;11.03;2.05;;;;;;;32.97;33.51;101829.02;1888204;76;21518;-63
2022/10/01 07:24:08;;;;;;;4.03;1.52;;;;;;;33.39;33.75;101833.14;1887753;75;21101;-63
2022/10/01 07:26:37;;;;;;;2.70;1.42;;;;;;;33.85;32.64;101830.32;1887856;76;21527;-63
2022/10/01 07:29:05;;;;;;;6.20;1.77;;;;;;;34.15;32.31;101834.41;1887877;76;21014;-63
2022/10/01 07:31:34;;;;;;;3.05;1.60;;;;;;;34.46;31.94;101825.16;1887901;76;21010;-63
2022/10/01 22:45:13;;;;;;;9.58;5.80;;;;;;;14.34;73.86;101253.13;1932520;72;25937;-66
2022/10/01 22:47:48;;;;;;;12.33;5.87;;;;;;;14.30;73.98;101252.41;1916550;74;21097;-65
2022/10/01 22:50:31;;;;;;;9.78;6.25;;;;;;;14.29;74.16;101255.97;1893732;75;21062;-63
2022/10/01 22:53:05;;;;;;;;;;;;;;;14.30;74.45;101255.05;1898308;75;21059;-64
2022/10/01 22:55:47;;;;;;;11.70;7.85;;;;;;;14.32;74.50;101255.83;1902205;75;20119;-64
2022/10/01 22:58:46;;;;;;;10.63;6.78;;;;;;;14.31;74.47;101251.45;1912171;75;21008;-64
2022/10/01 23:01:45;;;;;;;11.50;6.60;;;;;;;14.31;74.58;101245.30;1906436;74;21094;-64
2022/10/01 23:04:33;;;;;;;11.05;6.30;;;;;;;14.29;74.58;101242.72;1904904;75;21113;-65
2022/10/01 23:07:10;;;;;;;19.48;6.50;;;;;;;14.28;74.65;101246.32;1896285;75;21067;-64
2022/10/01 23:10:02;;;;;;;13.40;6.47;;;;;;;14.32;74.57;101236.44;1888760;75;21115;-64
2022/10/01 23:12:33;;;;;;;9.93;5.35;;;;;;;14.38;74.50;101228.20;1918052;74;21486;-64
2022/10/01 23:15:11;;;;;;;34.03;10.15;;;;;;;14.38;74.42;101225.55;1917929;74;21035;-64
2022/10/01 23:17:42;;;;;;;15.30;7.67;;;;;;;14.40;74.36;101222.36;1918235;73;21551;-66
2022/10/01 23:20:14;;;;;;;10.68;6.12;;;;;;;14.37;74.38;101218.55;1918270;74;21060;-67
2022/10/01 23:23:05;;;;;;;11.88;6.58;;;;;;;14.35;74.39;101213.76;1900629;74;21026;-60
2022/10/01 23:25:58;;;;;;;11.93;6.50;;;;;;;14.32;74.49;101208.62;1884643;76;21587;-61
2022/10/01 23:28:44;;;;;;;10.03;5.08;;;;;;;14.28;74.85;101211.41;1886595;75;21055;-64
2022/10/01 23:31:19;;;;;;;10.00;5.08;;;;;;;14.27;75.18;101212.36;1885619;76;21007;-65
2022/10/01 23:33:59;;;;;;;9.30;4.87;;;;;;;14.26;75.43;101204.00;1884928;76;21141;-63
2022/10/01 23:36:50;;;;;;;9.40;4.80;;;;;;;14.28;75.28;101202.14;1887817;75;21067;-63
2022/10/01 23:39:34;;;;;;;7.87;4.92;;;;;;;14.32;75.17;101196.70;1885500;75;21615;-65
2022/10/01 23:42:10;;;;;;;;;;;;;;;14.34;75.00;101197.48;1888415;76;21031;-65
2022/10/01 23:44:41;;;;;;;11.18;5.30;;;;;;;14.32;74.81;101192.73;1889323;76;20098;-65
2022/10/01 23:47:13;;;;;;;13.65;5.15;;;;;;;14.29;74.60;101190.63;1894268;74;21063;-62
2022/10/01 23:49:45;;;;;;;9.48;4.92;;;;;;;14.27;74.64;101185.87;1920668;74;21020;-62
2022/10/01 23:52:34;;;;;;;10.93;5.80;;;;;;;14.24;74.70;101183.36;1924991;74;21145;-62
2022/10/01 23:58:08;;;;;;;16.67;8.33;;;;;;;14.20;75.00;101179.59;1922100;74;21020;-62
